MSR905 OJAI-HECA
Flight info
| Callsign | MSR905 |
|---|---|
| Flight time | 1h 8m |
| Altitude | 34000 |
| Route | MUVIN L53 TALMI T99 TOMAL J10 AMMIT Y64 MIRTA Q163 FIKER DCT ELIGI V606 LONIR |
| Aircraft | B738/M-SDE2E3FGHIRWXY/LB1 |
Departure
| Time | 2026-05-04 20:38 |
|---|---|
| Airport | Queen Alia International Airport (OJAI) |
Arrival
| Time | 2026-05-04 21:46 |
|---|---|
| Airport | Cairo International Airport (HECA) |
| Time | Latitude | Longitude | Altitude | Speed | Heading |
|---|---|---|---|---|---|
| 2026-05-04 20:07 | 31.72376 | 35.98588 | 2404 ft | 0 kts | 174° |
| 2026-05-04 20:30 | 31.72381 | 35.98588 | 2404 ft | 2 kts | 189° |
| 2026-05-04 20:30 | 31.72396 | 35.98592 | 2404 ft | 2 kts | 189° |
| 2026-05-04 20:31 | 31.72411 | 35.98594 | 2404 ft | 2 kts | 188° |
| 2026-05-04 20:31 | 31.72426 | 35.98597 | 2404 ft | 2 kts | 188° |
| 2026-05-04 20:31 | 31.72436 | 35.98598 | 2404 ft | 0 kts | 188° |
| 2026-05-04 20:31 | 31.72445 | 35.98598 | 2404 ft | 1 kts | 143° |
| 2026-05-04 20:32 | 31.72450 | 35.98589 | 2404 ft | 1 kts | 89° |
| 2026-05-04 20:32 | 31.72448 | 35.98582 | 2404 ft | 1 kts | 77° |
| 2026-05-04 20:32 | 31.72448 | 35.98579 | 2404 ft | 0 kts | 79° |
| 2026-05-04 20:33 | 31.72452 | 35.98608 | 2404 ft | 8 kts | 82° |
| 2026-05-04 20:34 | 31.72468 | 35.98718 | 2404 ft | 18 kts | 78° |
| 2026-05-04 20:34 | 31.72513 | 35.98879 | 2404 ft | 20 kts | 49° |
| 2026-05-04 20:34 | 31.72602 | 35.98900 | 2404 ft | 11 kts | 0° |
| 2026-05-04 20:34 | 31.72685 | 35.98970 | 2404 ft | 19 kts | 73° |
| 2026-05-04 20:35 | 31.72716 | 35.99152 | 2404 ft | 26 kts | 80° |
| 2026-05-04 20:35 | 31.72737 | 35.99305 | 2404 ft | 32 kts | 79° |
| 2026-05-04 20:35 | 31.72774 | 35.99563 | 2404 ft | 39 kts | 79° |
| 2026-05-04 20:35 | 31.72826 | 35.99910 | 2404 ft | 47 kts | 79° |
| 2026-05-04 20:36 | 31.72881 | 36.00294 | 2404 ft | 47 kts | 81° |
| 2026-05-04 20:36 | 31.72935 | 36.00666 | 2404 ft | 44 kts | 80° |
| 2026-05-04 20:36 | 31.73004 | 36.00798 | 2404 ft | 0 kts | 324° |
| 2026-05-04 20:36 | 31.73040 | 36.00777 | 2404 ft | 18 kts | 336° |
| 2026-05-04 20:37 | 31.73188 | 36.00734 | 2404 ft | 15 kts | 335° |
| 2026-05-04 20:37 | 31.73207 | 36.00674 | 2404 ft | 5 kts | 254° |
| 2026-05-04 20:37 | 31.73187 | 36.00539 | 2404 ft | 30 kts | 262° |
| 2026-05-04 20:37 | 31.73109 | 35.99965 | 2404 ft | 108 kts | 260° |
| 2026-05-04 20:38 | 31.72949 | 35.98849 | 2439 ft | 166 kts | 259° |
| 2026-05-04 20:38 | 31.72727 | 35.97457 | 3067 ft | 176 kts | 251° |
| 2026-05-04 20:38 | 31.71922 | 35.96368 | 3685 ft | 200 kts | 206° |
| 2026-05-04 20:38 | 31.70471 | 35.95777 | 4005 ft | 241 kts | 199° |
| 2026-05-04 20:39 | 31.68760 | 35.95267 | 4502 ft | 267 kts | 191° |
| 2026-05-04 20:39 | 31.66881 | 35.95453 | 5456 ft | 275 kts | 169° |
| 2026-05-04 20:39 | 31.65122 | 35.95847 | 6910 ft | 254 kts | 179° |
| 2026-05-04 20:39 | 31.63391 | 35.95841 | 7896 ft | 251 kts | 188° |
| 2026-05-04 20:40 | 31.61644 | 35.95605 | 8517 ft | 264 kts | 191° |
| 2026-05-04 20:40 | 31.59739 | 35.95260 | 8829 ft | 289 kts | 192° |
| 2026-05-04 20:40 | 31.57677 | 35.94859 | 9255 ft | 309 kts | 192° |
| 2026-05-04 20:40 | 31.55473 | 35.94419 | 9436 ft | 335 kts | 192° |
| 2026-05-04 20:41 | 31.53148 | 35.93952 | 10106 ft | 343 kts | 192° |
| 2026-05-04 20:41 | 31.50765 | 35.93471 | 10777 ft | 351 kts | 192° |
| 2026-05-04 20:41 | 31.48367 | 35.92986 | 11622 ft | 352 kts | 192° |
| 2026-05-04 20:41 | 31.45956 | 35.92497 | 12357 ft | 356 kts | 192° |
| 2026-05-04 20:42 | 31.43500 | 35.91998 | 13116 ft | 358 kts | 192° |
| 2026-05-04 20:42 | 31.41052 | 35.91501 | 13811 ft | 362 kts | 192° |
| 2026-05-04 20:42 | 31.38554 | 35.90994 | 14519 ft | 364 kts | 192° |
| 2026-05-04 20:42 | 31.36035 | 35.90483 | 15189 ft | 367 kts | 193° |
| 2026-05-04 20:43 | 31.33532 | 35.89976 | 15837 ft | 370 kts | 193° |
| 2026-05-04 20:43 | 31.31001 | 35.89463 | 16463 ft | 373 kts | 193° |
| 2026-05-04 20:43 | 31.28441 | 35.88943 | 17059 ft | 376 kts | 193° |
| 2026-05-04 20:43 | 31.25861 | 35.88421 | 17637 ft | 379 kts | 193° |
| 2026-05-04 20:44 | 31.23248 | 35.87892 | 18217 ft | 382 kts | 194° |
| 2026-05-04 20:44 | 31.20616 | 35.87360 | 18767 ft | 384 kts | 194° |
| 2026-05-04 20:44 | 31.17995 | 35.86829 | 19277 ft | 388 kts | 194° |
| 2026-05-04 20:44 | 31.15316 | 35.86288 | 19800 ft | 390 kts | 194° |
| 2026-05-04 20:45 | 31.12628 | 35.85744 | 20298 ft | 393 kts | 194° |
| 2026-05-04 20:45 | 31.09918 | 35.85196 | 20768 ft | 396 kts | 195° |
| 2026-05-04 20:45 | 31.07193 | 35.84646 | 21232 ft | 399 kts | 195° |
| 2026-05-04 20:45 | 31.04458 | 35.84094 | 21670 ft | 402 kts | 195° |
| 2026-05-04 20:46 | 31.01684 | 35.83534 | 22080 ft | 405 kts | 195° |
| 2026-05-04 20:46 | 30.98897 | 35.82972 | 22473 ft | 409 kts | 195° |
| 2026-05-04 20:46 | 30.96062 | 35.82401 | 22847 ft | 412 kts | 195° |
| 2026-05-04 20:46 | 30.93233 | 35.81832 | 23212 ft | 415 kts | 195° |
| 2026-05-04 20:47 | 30.90401 | 35.81262 | 23556 ft | 419 kts | 195° |
| 2026-05-04 20:47 | 30.87525 | 35.80683 | 23900 ft | 422 kts | 195° |
| 2026-05-04 20:47 | 30.84600 | 35.80067 | 24274 ft | 423 kts | 197° |
| 2026-05-04 20:47 | 30.81749 | 35.79243 | 24617 ft | 422 kts | 202° |
| 2026-05-04 20:48 | 30.79066 | 35.77994 | 24941 ft | 419 kts | 211° |
| 2026-05-04 20:48 | 30.76485 | 35.76413 | 25322 ft | 419 kts | 213° |
| 2026-05-04 20:48 | 30.73918 | 35.74834 | 25632 ft | 422 kts | 212° |
| 2026-05-04 20:48 | 30.71290 | 35.73262 | 25986 ft | 423 kts | 212° |
| 2026-05-04 20:49 | 30.68683 | 35.71701 | 26448 ft | 422 kts | 213° |
| 2026-05-04 20:49 | 30.66073 | 35.70125 | 26839 ft | 422 kts | 213° |
| 2026-05-04 20:49 | 30.63515 | 35.68578 | 27287 ft | 420 kts | 213° |
| 2026-05-04 20:49 | 30.60906 | 35.67002 | 27681 ft | 420 kts | 213° |
| 2026-05-04 20:50 | 30.58305 | 35.65430 | 28074 ft | 419 kts | 214° |
| 2026-05-04 20:50 | 30.55726 | 35.63871 | 28472 ft | 418 kts | 214° |
| 2026-05-04 20:50 | 30.53157 | 35.62317 | 28848 ft | 418 kts | 214° |
| 2026-05-04 20:50 | 30.50578 | 35.60759 | 29206 ft | 418 kts | 214° |
| 2026-05-04 20:51 | 30.48023 | 35.59215 | 29604 ft | 416 kts | 214° |
| 2026-05-04 20:51 | 30.45466 | 35.57671 | 29904 ft | 417 kts | 215° |
| 2026-05-04 20:51 | 30.42865 | 35.56101 | 30261 ft | 416 kts | 215° |
| 2026-05-04 20:51 | 30.40301 | 35.54555 | 30620 ft | 416 kts | 215° |
| 2026-05-04 20:52 | 30.37749 | 35.53016 | 30945 ft | 415 kts | 215° |
| 2026-05-04 20:52 | 30.35172 | 35.51463 | 31260 ft | 415 kts | 216° |
| 2026-05-04 20:52 | 30.32633 | 35.49933 | 31552 ft | 415 kts | 216° |
| 2026-05-04 20:52 | 30.30059 | 35.48383 | 31835 ft | 416 kts | 216° |
| 2026-05-04 20:53 | 30.27475 | 35.46829 | 32154 ft | 415 kts | 216° |
| 2026-05-04 20:53 | 30.24956 | 35.45315 | 32478 ft | 414 kts | 216° |
| 2026-05-04 20:53 | 30.22332 | 35.43817 | 32681 ft | 420 kts | 213° |
| 2026-05-04 20:53 | 30.19592 | 35.42622 | 32991 ft | 426 kts | 207° |
| 2026-05-04 20:54 | 30.16751 | 35.41590 | 33240 ft | 427 kts | 207° |
| 2026-05-04 20:54 | 30.13945 | 35.40556 | 33468 ft | 427 kts | 208° |
| 2026-05-04 20:54 | 30.11098 | 35.39478 | 33753 ft | 426 kts | 208° |
| 2026-05-04 20:54 | 30.08286 | 35.38415 | 33972 ft | 428 kts | 208° |
| 2026-05-04 20:55 | 30.02619 | 35.36302 | 34073 ft | 430 kts | 208° |
| 2026-05-04 20:55 | 29.96957 | 35.34207 | 34074 ft | 427 kts | 207° |
| 2026-05-04 20:56 | 29.91305 | 35.32115 | 34074 ft | 427 kts | 207° |
| 2026-05-04 20:56 | 29.85670 | 35.30036 | 34074 ft | 427 kts | 207° |
| 2026-05-04 20:57 | 29.79997 | 35.27946 | 34074 ft | 428 kts | 207° |
| 2026-05-04 20:57 | 29.74348 | 35.25868 | 34074 ft | 427 kts | 207° |
| 2026-05-04 20:58 | 29.68705 | 35.23795 | 34074 ft | 428 kts | 207° |
| 2026-05-04 20:58 | 29.63035 | 35.21715 | 34074 ft | 427 kts | 207° |
| 2026-05-04 20:59 | 29.57885 | 35.18797 | 34075 ft | 404 kts | 226° |
| 2026-05-04 20:59 | 29.55864 | 35.16622 | 34076 ft | 393 kts | 236° |
| 2026-05-04 20:59 | 29.54125 | 35.14239 | 34074 ft | 390 kts | 238° |
| 2026-05-04 21:00 | 29.50589 | 35.09470 | 34073 ft | 392 kts | 237° |
| 2026-05-04 21:00 | 29.47050 | 35.04739 | 34073 ft | 391 kts | 237° |
| 2026-05-04 21:01 | 29.43526 | 34.99997 | 34074 ft | 391 kts | 236° |
| 2026-05-04 21:01 | 29.39498 | 34.95758 | 34075 ft | 403 kts | 224° |
| 2026-05-04 21:02 | 29.34884 | 34.92127 | 34073 ft | 401 kts | 224° |
| 2026-05-04 21:02 | 29.30334 | 34.88466 | 34074 ft | 400 kts | 224° |
| 2026-05-04 21:03 | 29.25742 | 34.84827 | 34074 ft | 399 kts | 223° |
| 2026-05-04 21:03 | 29.21168 | 34.81213 | 34074 ft | 398 kts | 223° |
| 2026-05-04 21:04 | 29.16624 | 34.77634 | 34074 ft | 397 kts | 223° |
| 2026-05-04 21:04 | 29.12104 | 34.74079 | 34074 ft | 396 kts | 223° |
| 2026-05-04 21:05 | 29.07949 | 34.70123 | 34074 ft | 385 kts | 238° |
| 2026-05-04 21:05 | 29.06559 | 34.67560 | 34075 ft | 378 kts | 250° |
| 2026-05-04 21:05 | 29.05711 | 34.64735 | 34075 ft | 375 kts | 260° |
| 2026-05-04 21:06 | 29.05391 | 34.61791 | 34072 ft | 372 kts | 271° |
| 2026-05-04 21:06 | 29.05736 | 34.58854 | 34076 ft | 373 kts | 284° |
| 2026-05-04 21:06 | 29.07378 | 34.53257 | 34073 ft | 372 kts | 286° |
| 2026-05-04 21:07 | 29.08969 | 34.47658 | 34074 ft | 370 kts | 286° |
| 2026-05-04 21:07 | 29.10587 | 34.42084 | 34074 ft | 368 kts | 286° |
| 2026-05-04 21:08 | 29.12188 | 34.36572 | 34074 ft | 367 kts | 286° |
| 2026-05-04 21:08 | 29.13806 | 34.31017 | 34074 ft | 367 kts | 285° |
| 2026-05-04 21:09 | 29.15410 | 34.25498 | 34074 ft | 367 kts | 285° |
| 2026-05-04 21:09 | 29.17012 | 34.19982 | 34074 ft | 367 kts | 285° |
| 2026-05-04 21:10 | 29.18621 | 34.14437 | 34074 ft | 367 kts | 285° |
| 2026-05-04 21:10 | 29.20227 | 34.08894 | 34074 ft | 367 kts | 285° |
| 2026-05-04 21:11 | 29.21822 | 34.03378 | 34074 ft | 367 kts | 285° |
| 2026-05-04 21:11 | 29.23424 | 33.97831 | 34074 ft | 367 kts | 285° |
| 2026-05-04 21:12 | 29.25019 | 33.92296 | 34074 ft | 367 kts | 285° |
| 2026-05-04 21:12 | 29.26619 | 33.86748 | 34074 ft | 367 kts | 285° |
| 2026-05-04 21:13 | 29.28211 | 33.81207 | 34074 ft | 367 kts | 285° |
| 2026-05-04 21:13 | 29.29807 | 33.75639 | 34074 ft | 367 kts | 285° |
| 2026-05-04 21:14 | 29.31383 | 33.70138 | 34074 ft | 367 kts | 285° |
| 2026-05-04 21:14 | 29.32976 | 33.64560 | 34074 ft | 367 kts | 285° |
| 2026-05-04 21:15 | 29.34558 | 33.59016 | 34074 ft | 367 kts | 285° |
| 2026-05-04 21:15 | 29.36145 | 33.53447 | 34074 ft | 367 kts | 285° |
| 2026-05-04 21:16 | 29.37718 | 33.47913 | 34074 ft | 367 kts | 285° |
| 2026-05-04 21:16 | 29.39301 | 33.42343 | 34074 ft | 367 kts | 285° |
| 2026-05-04 21:17 | 29.40877 | 33.36783 | 34074 ft | 367 kts | 285° |
| 2026-05-04 21:17 | 29.42450 | 33.31221 | 34083 ft | 367 kts | 285° |
| 2026-05-04 21:18 | 29.44026 | 33.25641 | 34095 ft | 367 kts | 285° |
| 2026-05-04 21:18 | 29.45593 | 33.20083 | 34108 ft | 367 kts | 285° |
| 2026-05-04 21:19 | 29.47163 | 33.14500 | 34120 ft | 367 kts | 285° |
| 2026-05-04 21:19 | 29.48728 | 33.08931 | 34128 ft | 367 kts | 285° |
| 2026-05-04 21:20 | 29.50278 | 33.03395 | 34128 ft | 367 kts | 284° |
| 2026-05-04 21:20 | 29.51842 | 32.97810 | 34128 ft | 367 kts | 284° |
| 2026-05-04 21:21 | 29.53400 | 32.92238 | 34128 ft | 367 kts | 284° |
| 2026-05-04 21:21 | 29.54962 | 32.86637 | 34128 ft | 367 kts | 283° |
| 2026-05-04 21:22 | 29.56518 | 32.81045 | 34128 ft | 367 kts | 284° |
| 2026-05-04 21:22 | 29.58072 | 32.75455 | 34128 ft | 367 kts | 283° |
| 2026-05-04 21:23 | 29.59611 | 32.69907 | 34122 ft | 360 kts | 284° |
| 2026-05-04 21:23 | 29.60340 | 32.67202 | 34127 ft | 342 kts | 282° |
| 2026-05-04 21:23 | 29.60923 | 32.64630 | 34128 ft | 324 kts | 280° |
| 2026-05-04 21:24 | 29.61454 | 32.62174 | 33909 ft | 314 kts | 281° |
| 2026-05-04 21:24 | 29.62001 | 32.59740 | 33258 ft | 316 kts | 281° |
| 2026-05-04 21:24 | 29.62553 | 32.57314 | 32603 ft | 318 kts | 281° |
| 2026-05-04 21:24 | 29.63107 | 32.54865 | 31936 ft | 319 kts | 282° |
| 2026-05-04 21:25 | 29.63664 | 32.52394 | 31259 ft | 321 kts | 282° |
| 2026-05-04 21:25 | 29.64222 | 32.49916 | 30584 ft | 323 kts | 282° |
| 2026-05-04 21:25 | 29.64789 | 32.47407 | 29878 ft | 325 kts | 282° |
| 2026-05-04 21:25 | 29.65356 | 32.44902 | 29149 ft | 327 kts | 283° |
| 2026-05-04 21:26 | 29.65929 | 32.42364 | 28529 ft | 326 kts | 283° |
| 2026-05-04 21:26 | 29.66493 | 32.39868 | 27931 ft | 325 kts | 283° |
| 2026-05-04 21:26 | 29.67059 | 32.37353 | 27321 ft | 324 kts | 283° |
| 2026-05-04 21:26 | 29.67624 | 32.34845 | 26717 ft | 323 kts | 283° |
| 2026-05-04 21:27 | 29.68184 | 32.32354 | 26117 ft | 323 kts | 283° |
| 2026-05-04 21:27 | 29.68749 | 32.29839 | 25510 ft | 323 kts | 283° |
| 2026-05-04 21:27 | 29.69308 | 32.27351 | 24910 ft | 322 kts | 284° |
| 2026-05-04 21:27 | 29.69863 | 32.24878 | 24312 ft | 322 kts | 284° |
| 2026-05-04 21:28 | 29.70416 | 32.22413 | 23716 ft | 321 kts | 284° |
| 2026-05-04 21:28 | 29.70971 | 32.19933 | 23116 ft | 321 kts | 284° |
| 2026-05-04 21:28 | 29.71527 | 32.17450 | 22514 ft | 321 kts | 284° |
| 2026-05-04 21:28 | 29.72082 | 32.14965 | 21911 ft | 320 kts | 284° |
| 2026-05-04 21:29 | 29.72632 | 32.12504 | 21313 ft | 320 kts | 284° |
| 2026-05-04 21:29 | 29.73189 | 32.10006 | 20705 ft | 320 kts | 285° |
| 2026-05-04 21:29 | 29.73734 | 32.07563 | 20191 ft | 316 kts | 285° |
| 2026-05-04 21:29 | 29.74272 | 32.05146 | 20130 ft | 300 kts | 285° |
| 2026-05-04 21:30 | 29.74775 | 32.02880 | 20131 ft | 295 kts | 285° |
| 2026-05-04 21:30 | 29.75294 | 32.00549 | 20129 ft | 300 kts | 285° |
| 2026-05-04 21:30 | 29.75810 | 31.98225 | 20128 ft | 301 kts | 285° |
| 2026-05-04 21:30 | 29.76329 | 31.95886 | 20128 ft | 301 kts | 285° |
| 2026-05-04 21:31 | 29.77373 | 31.91176 | 19495 ft | 306 kts | 285° |
| 2026-05-04 21:31 | 29.77912 | 31.88807 | 18992 ft | 304 kts | 287° |
| 2026-05-04 21:31 | 29.78684 | 31.86561 | 18489 ft | 302 kts | 297° |
| 2026-05-04 21:32 | 29.79814 | 31.84560 | 17996 ft | 301 kts | 306° |
| 2026-05-04 21:32 | 29.81084 | 31.82641 | 17494 ft | 300 kts | 306° |
| 2026-05-04 21:32 | 29.82319 | 31.80710 | 16992 ft | 299 kts | 305° |
| 2026-05-04 21:32 | 29.83553 | 31.78777 | 16487 ft | 298 kts | 306° |
| 2026-05-04 21:33 | 29.84767 | 31.76894 | 15993 ft | 297 kts | 306° |
| 2026-05-04 21:33 | 29.86002 | 31.74980 | 15489 ft | 296 kts | 306° |
| 2026-05-04 21:33 | 29.87228 | 31.73078 | 14987 ft | 295 kts | 306° |
| 2026-05-04 21:33 | 29.88455 | 31.71176 | 14484 ft | 295 kts | 306° |
| 2026-05-04 21:34 | 29.89669 | 31.69292 | 13985 ft | 294 kts | 306° |
| 2026-05-04 21:34 | 29.90877 | 31.67419 | 13488 ft | 294 kts | 306° |
| 2026-05-04 21:34 | 29.92107 | 31.65509 | 12981 ft | 294 kts | 306° |
| 2026-05-04 21:34 | 29.93321 | 31.63625 | 12481 ft | 293 kts | 306° |
| 2026-05-04 21:35 | 29.94539 | 31.61733 | 11978 ft | 293 kts | 307° |
| 2026-05-04 21:35 | 29.95741 | 31.59865 | 11482 ft | 293 kts | 307° |
| 2026-05-04 21:35 | 29.96960 | 31.57969 | 10908 ft | 295 kts | 307° |
| 2026-05-04 21:35 | 29.98192 | 31.56053 | 9920 ft | 305 kts | 307° |
| 2026-05-04 21:36 | 29.99457 | 31.54084 | 8746 ft | 313 kts | 307° |
| 2026-05-04 21:36 | 30.00532 | 31.52409 | 7311 ft | 330 kts | 307° |
| 2026-05-04 21:36 | 30.02084 | 31.49992 | 5421 ft | 342 kts | 307° |
| 2026-05-04 21:36 | 30.03467 | 31.47837 | 4684 ft | 321 kts | 307° |
| 2026-05-04 21:37 | 30.04725 | 31.45874 | 4559 ft | 288 kts | 307° |
| 2026-05-04 21:37 | 30.05861 | 31.44102 | 4456 ft | 260 kts | 307° |
| 2026-05-04 21:37 | 30.06846 | 31.42458 | 4353 ft | 238 kts | 297° |
| 2026-05-04 21:37 | 30.07210 | 31.40703 | 4264 ft | 216 kts | 271° |
| 2026-05-04 21:38 | 30.07172 | 31.39048 | 4148 ft | 195 kts | 281° |
| 2026-05-04 21:38 | 30.07754 | 31.37807 | 4046 ft | 167 kts | 327° |
| 2026-05-04 21:38 | 30.08770 | 31.37656 | 3949 ft | 146 kts | 21° |
| 2026-05-04 21:38 | 30.09595 | 31.38306 | 3966 ft | 141 kts | 32° |
| 2026-05-04 21:39 | 30.10321 | 31.38992 | 3888 ft | 143 kts | 37° |
| 2026-05-04 21:39 | 30.11034 | 31.39782 | 3948 ft | 141 kts | 41° |
| 2026-05-04 21:39 | 30.11661 | 31.40675 | 4027 ft | 147 kts | 51° |
| 2026-05-04 21:39 | 30.12072 | 31.41773 | 3686 ft | 152 kts | 73° |
| 2026-05-04 21:40 | 30.12415 | 31.42877 | 3285 ft | 145 kts | 52° |
| 2026-05-04 21:40 | 30.13005 | 31.43813 | 2816 ft | 145 kts | 44° |
| 2026-05-04 21:40 | 30.13675 | 31.44686 | 2249 ft | 143 kts | 43° |
| 2026-05-04 21:40 | 30.14302 | 31.45538 | 1818 ft | 137 kts | 44° |
| 2026-05-04 21:41 | 30.14924 | 31.46368 | 1391 ft | 137 kts | 45° |
| 2026-05-04 21:41 | 30.15517 | 31.47211 | 980 ft | 139 kts | 46° |
| 2026-05-04 21:41 | 30.16135 | 31.48069 | 520 ft | 137 kts | 45° |
| 2026-05-04 21:41 | 30.16783 | 31.48922 | 711 ft | 141 kts | 42° |
| 2026-05-04 21:42 | 30.17484 | 31.49776 | 1078 ft | 160 kts | 39° |
| 2026-05-04 21:42 | 30.18334 | 31.50624 | 1653 ft | 161 kts | 34° |
| 2026-05-04 21:42 | 30.19180 | 31.51333 | 2288 ft | 148 kts | 28° |
| 2026-05-04 21:42 | 30.20053 | 31.52025 | 2517 ft | 153 kts | 30° |
| 2026-05-04 21:43 | 30.20867 | 31.52785 | 2917 ft | 154 kts | 57° |
| 2026-05-04 21:43 | 30.20645 | 31.53984 | 2817 ft | 181 kts | 152° |
| 2026-05-04 21:43 | 30.19566 | 31.53786 | 2094 ft | 165 kts | 240° |
| 2026-05-04 21:43 | 30.19115 | 31.52676 | 1813 ft | 145 kts | 249° |
| 2026-05-04 21:44 | 30.18589 | 31.51642 | 1914 ft | 153 kts | 242° |
| 2026-05-04 21:44 | 30.17937 | 31.50661 | 2058 ft | 156 kts | 236° |
| 2026-05-04 21:44 | 30.17260 | 31.49670 | 2186 ft | 158 kts | 237° |
| 2026-05-04 21:44 | 30.16581 | 31.48669 | 2112 ft | 157 kts | 236° |
| 2026-05-04 21:45 | 30.15894 | 31.47680 | 1978 ft | 156 kts | 236° |
| 2026-05-04 21:45 | 30.15188 | 31.46698 | 1710 ft | 160 kts | 234° |
| 2026-05-04 21:45 | 30.14463 | 31.45747 | 1266 ft | 154 kts | 233° |
| 2026-05-04 21:45 | 30.13760 | 31.44844 | 1063 ft | 149 kts | 233° |
| 2026-05-04 21:46 | 30.13074 | 31.43915 | 713 ft | 149 kts | 234° |
| 2026-05-04 21:46 | 30.12418 | 31.43055 | 442 ft | 137 kts | 233° |
| 2026-05-04 21:46 | 30.11881 | 31.42354 | 372 ft | 80 kts | 230° |
| 2026-05-04 21:46 | 30.11635 | 31.42033 | 373 ft | 44 kts | 230° |
| 2026-05-04 21:47 | 30.11451 | 31.41773 | 371 ft | 38 kts | 233° |
| 2026-05-04 21:47 | 30.11286 | 31.41571 | 375 ft | 30 kts | 230° |
| 2026-05-04 21:47 | 30.11129 | 31.41353 | 379 ft | 40 kts | 232° |
| 2026-05-04 21:47 | 30.10926 | 31.41062 | 382 ft | 51 kts | 225° |
| 2026-05-04 21:48 | 30.10761 | 31.40762 | 383 ft | 40 kts | 284° |
| 2026-05-04 21:48 | 30.10795 | 31.40538 | 371 ft | 31 kts | 224° |
| 2026-05-04 21:48 | 30.10698 | 31.40349 | 366 ft | 7 kts | 271° |
| 2026-05-04 21:48 | 30.10700 | 31.40333 | 365 ft | 3 kts | 285° |
| 2026-05-04 21:49 | 30.10702 | 31.40326 | 364 ft | 0 kts | 285° |
| 2026-05-04 21:50 | 30.10709 | 31.40289 | 363 ft | 17 kts | 278° |
| 2026-05-04 21:50 | 30.10605 | 31.40107 | 362 ft | 32 kts | 227° |
| 2026-05-04 21:51 | 30.10496 | 31.39970 | 363 ft | 19 kts | 228° |
| 2026-05-04 21:51 | 30.10421 | 31.39870 | 363 ft | 15 kts | 230° |
| 2026-05-04 21:51 | 30.10396 | 31.39820 | 363 ft | 1 kts | 271° |
| 2026-05-04 21:51 | 30.10399 | 31.39809 | 363 ft | 1 kts | 297° |
| 2026-05-04 21:52 | 30.10407 | 31.39798 | 362 ft | 0 kts | 328° |
| 2026-05-04 21:52 | 30.10421 | 31.39788 | 361 ft | 4 kts | 328° |
| 2026-05-04 21:52 | 30.10463 | 31.39772 | 358 ft | 7 kts | 345° |
| 2026-05-04 21:52 | 30.10545 | 31.39783 | 353 ft | 15 kts | 29° |
| 2026-05-04 21:53 | 30.10641 | 31.39821 | 348 ft | 13 kts | 354° |
| 2026-05-04 21:53 | 30.10747 | 31.39799 | 343 ft | 14 kts | 348° |
| 2026-05-04 21:53 | 30.10838 | 31.39812 | 340 ft | 0 kts | 46° |
| 2026-05-04 21:53 | 30.10841 | 31.39815 | 340 ft | 3 kts | 45° |
| 2026-05-04 21:54 | 30.10849 | 31.39825 | 340 ft | 2 kts | 53° |
| 2026-05-04 21:54 | 30.10859 | 31.39849 | 340 ft | 1 kts | 73° |
| 2026-05-04 21:54 | 30.10859 | 31.39850 | 340 ft | 0 kts | 73° |